Time;durP1;ratioP1;P1;durP2;ratioP2;P2;SDS_P1;SDS_P2;PMS_P1;PMS_P2;Temp;Humidity;BMP_temperature;BMP_pressure;BME280_temperature;BME280_humidity;BME280_pressure;Samples;Min_cycle;Max_cycle;Signal;HPM_P1;HPM_P2
2023/06/20 00:00:47;;;;;;;7.45;5.38;;;;;;;;;;5015159;28;20042;-78
2023/06/20 00:03:15;;;;;;;7.80;4.75;;;;;;;;;;5017965;28;20045;-78
2023/06/20 00:05:41;;;;;;;8.43;5.88;;;;;;;;;;5018178;28;20046;-78
2023/06/20 00:08:10;;;;;;;9.40;6.07;;;;;;;;;;5016996;28;20046;-78
2023/06/20 00:10:37;;;;;;;7.35;5.80;;;;;;;;;;5017543;28;20049;-77
2023/06/20 00:13:04;;;;;;;9.88;6.43;;;;;;;;;;5018803;28;20054;-78
2023/06/20 00:15:31;;;;;;;8.32;6.65;;;;;;;;;;5019224;28;20045;-78
2023/06/20 00:18:00;;;;;;;7.20;4.88;;;;;;;;;;5017949;28;20532;-77
2023/06/20 00:20:27;;;;;;;7.18;4.88;;;;;;;;;;5033076;28;20046;-78
2023/06/20 00:22:54;;;;;;;7.50;4.43;;;;;;;;;;5036851;28;20067;-78
2023/06/20 00:25:22;;;;;;;7.72;4.65;;;;;;;;;;5038060;28;20080;-78
2023/06/20 00:27:49;;;;;;;6.03;4.30;;;;;;;;;;5038565;28;20045;-78
2023/06/20 00:30:16;;;;;;;6.85;4.35;;;;;;;;;;5037459;28;20050;-78
2023/06/20 00:32:42;;;;;;;8.07;5.05;;;;;;;;;;5029045;28;20050;-78
2023/06/20 00:35:09;;;;;;;7.15;4.80;;;;;;;;;;5015374;28;20125;-79
2023/06/20 00:37:38;;;;;;;7.47;5.38;;;;;;;;;;5016113;28;20081;-78
2023/06/20 00:40:06;;;;;;;11.40;6.78;;;;;;;;;;5016987;28;20096;-78
2023/06/20 00:42:34;;;;;;;10.50;7.20;;;;;;;;;;5018535;28;20050;-78
2023/06/20 00:45:01;;;;;;;9.35;6.80;;;;;;;;;;5018216;28;20050;-78
2023/06/20 00:47:28;;;;;;;9.73;6.53;;;;;;;;;;5016881;28;20060;-77
2023/06/20 00:49:56;;;;;;;9.27;6.40;;;;;;;;;;5027860;28;20493;-78
2023/06/20 00:52:23;;;;;;;9.40;5.82;;;;;;;;;;5035495;28;20049;-78
2023/06/20 00:54:50;;;;;;;7.40;5.15;;;;;;;;;;5035218;28;20056;-77
2023/06/20 00:57:19;;;;;;;7.22;5.00;;;;;;;;;;5019292;28;20493;-77
2023/06/20 00:59:48;;;;;;;6.47;4.55;;;;;;;;;;5014938;28;20101;-77
2023/06/20 01:02:15;;;;;;;6.30;4.88;;;;;;;;;;5015564;28;20117;-78
2023/06/20 01:04:45;;;;;;;6.93;4.65;;;;;;;;;;5015661;28;20053;-78
2023/06/20 01:07:17;;;;;;;7.38;5.03;;;;;;;;;;5015686;28;20056;-78
2023/06/20 01:09:52;;;;;;;6.72;4.53;;;;;;;;;;5016233;28;20042;-79
2023/06/20 01:12:25;;;;;;;6.35;4.60;;;;;;;;;;5017844;28;20133;-78
2023/06/20 01:14:59;;;;;;;6.57;4.32;;;;;;;;;;5020457;28;20082;-78
2023/06/20 01:17:32;;;;;;;6.10;4.00;;;;;;;;;;5019383;28;20133;-78
2023/06/20 01:20:07;;;;;;;7.45;4.63;;;;;;;;;;5032848;28;20045;-78
2023/06/20 01:23:02;;;;;;;6.53;4.18;;;;;;;;;;5038446;28;20124;-78
2023/06/20 01:25:36;;;;;;;6.15;4.15;;;;;;;;;;5040288;28;20081;-78
2023/06/20 01:28:10;;;;;;;6.43;4.35;;;;;;;;;;5040613;28;20072;-78
2023/06/20 01:30:47;;;;;;;6.55;4.47;;;;;;;;;;5037356;28;20100;-79
2023/06/20 01:33:17;;;;;;;6.80;4.32;;;;;;;;;;5021411;28;20445;-79
2023/06/20 01:35:45;;;;;;;;;;;;;;;;;;5020434;28;20133;-78
2023/06/20 01:38:14;;;;;;;6.30;4.35;;;;;;;;;;5018819;28;19971;-79
2023/06/20 01:40:42;;;;;;;6.75;4.07;;;;;;;;;;5018701;28;20556;-79
2023/06/20 01:43:11;;;;;;;7.55;4.43;;;;;;;;;;5022260;28;20050;-78
2023/06/20 01:45:40;;;;;;;6.50;4.50;;;;;;;;;;5039491;28;20077;-78
2023/06/20 01:48:08;;;;;;;6.55;4.35;;;;;;;;;;5038884;28;20489;-78
2023/06/20 01:50:37;;;;;;;6.13;4.32;;;;;;;;;;5020997;28;20088;-78
2023/06/20 01:53:06;;;;;;;6.45;4.25;;;;;;;;;;5020486;28;20132;-78
2023/06/20 01:55:36;;;;;;;7.47;4.63;;;;;;;;;;5020519;28;20515;-78
2023/06/20 01:58:04;;;;;;;5.75;3.92;;;;;;;;;;5020261;28;20050;-79
2023/06/20 02:00:32;;;;;;;5.78;4.38;;;;;;;;;;5019454;28;20049;-78
2023/06/20 02:02:59;;;;;;;6.22;4.50;;;;;;;;;;5029103;28;20103;-79
2023/06/20 02:05:29;;;;;;;6.65;4.30;;;;;;;;;;5039303;28;20054;-77
2023/06/20 02:07:57;;;;;;;6.65;4.82;;;;;;;;;;5039485;28;20076;-78
2023/06/20 02:10:25;;;;;;;6.80;4.88;;;;;;;;;;5039817;28;20099;-78
2023/06/20 02:12:55;;;;;;;7.75;5.07;;;;;;;;;;5034875;28;20106;-78
2023/06/20 02:15:24;;;;;;;6.90;5.05;;;;;;;;;;5021084;28;20113;-78
2023/06/20 02:17:51;;;;;;;5.80;4.40;;;;;;;;;;5026667;28;20053;-78
2023/06/20 02:20:17;;;;;;;7.07;4.88;;;;;;;;;;5019729;28;20045;-78
2023/06/20 02:22:46;;;;;;;7.93;4.65;;;;;;;;;;5019143;28;20128;-77
2023/06/20 02:25:20;;;;;;;7.68;5.25;;;;;;;;;;5016466;28;20045;-78
2023/06/20 02:27:48;;;;;;;6.63;5.50;;;;;;;;;;5022788;28;20042;-77
2023/06/20 02:30:19;;;;;;;11.88;6.47;;;;;;;;;;5029021;28;20042;-78
2023/06/20 02:32:46;;;;;;;7.50;5.70;;;;;;;;;;5039306;28;20057;-77
2023/06/20 02:35:14;;;;;;;7.82;5.70;;;;;;;;;;5036974;28;20051;-78
2023/06/20 02:37:43;;;;;;;7.82;5.47;;;;;;;;;;5036193;28;20073;-77
2023/06/20 02:40:11;;;;;;;7.85;5.43;;;;;;;;;;5035855;28;20053;-77
2023/06/20 02:42:38;;;;;;;7.70;5.47;;;;;;;;;;5036568;28;20081;-79
2023/06/20 02:45:05;;;;;;;7.30;5.57;;;;;;;;;;5036389;28;20110;-79
2023/06/20 02:47:43;;;;;;;9.23;5.50;;;;;;;;;;5039943;28;20049;-78
2023/06/20 02:50:18;;;;;;;6.63;5.03;;;;;;;;;;5033775;28;20115;-78
2023/06/20 02:52:49;;;;;;;9.52;6.22;;;;;;;;;;5041553;28;20112;-78
2023/06/20 02:55:27;;;;;;;9.43;6.22;;;;;;;;;;5041422;28;20397;-78
2023/06/20 02:57:56;;;;;;;7.57;6.03;;;;;;;;;;5042156;28;20128;-78
2023/06/20 03:00:24;;;;;;;7.50;5.50;;;;;;;;;;5039699;28;20524;-78
2023/06/20 03:02:59;;;;;;;7.95;5.82;;;;;;;;;;5024602;28;20089;-78
2023/06/20 03:05:29;;;;;;;9.02;5.43;;;;;;;;;;5042119;28;20079;-77
2023/06/20 03:07:57;;;;;;;7.40;5.25;;;;;;;;;;5041488;28;20049;-77
2023/06/20 03:10:25;;;;;;;7.22;5.63;;;;;;;;;;5042202;28;20109;-77
2023/06/20 03:12:52;;;;;;;6.40;5.05;;;;;;;;;;5041116;28;20132;-78
2023/06/20 03:15:18;;;;;;;6.80;5.25;;;;;;;;;;5036374;28;20506;-78
2023/06/20 03:17:45;;;;;;;7.85;5.15;;;;;;;;;;5034280;28;20080;-78
2023/06/20 03:20:14;;;;;;;7.68;5.25;;;;;;;;;;5035433;28;20053;-77
2023/06/20 03:22:40;;;;;;;6.88;5.15;;;;;;;;;;5034483;28;20104;-78
2023/06/20 03:25:08;;;;;;;7.32;5.50;;;;;;;;;;5034716;28;20527;-77
2023/06/20 03:27:34;;;;;;;8.02;5.38;;;;;;;;;;5034459;28;20103;-77
2023/06/20 03:30:03;;;;;;;8.45;5.68;;;;;;;;;;5034960;28;20124;-78
2023/06/20 03:32:30;;;;;;;8.23;5.45;;;;;;;;;;5037437;28;20057;-79
2023/06/20 03:34:57;;;;;;;7.50;5.50;;;;;;;;;;5046050;28;20076;-78
2023/06/20 03:37:25;;;;;;;7.10;5.30;;;;;;;;;;5051248;28;20045;-78
2023/06/20 03:39:51;;;;;;;7.05;5.28;;;;;;;;;;5044921;28;20083;-79
2023/06/20 03:42:18;;;;;;;7.78;5.57;;;;;;;;;;5043242;28;20061;-78
2023/06/20 03:44:44;;;;;;;7.78;5.43;;;;;;;;;;5042055;28;20041;-78
2023/06/20 03:47:11;;;;;;;7.15;5.22;;;;;;;;;;5036557;28;20042;-78
2023/06/20 03:49:38;;;;;;;6.53;5.03;;;;;;;;;;5031893;28;20069;-78
2023/06/20 03:52:05;;;;;;;7.50;5.20;;;;;;;;;;5040934;28;20049;-78
2023/06/20 03:54:34;;;;;;;7.10;5.50;;;;;;;;;;5041202;28;20049;-78
2023/06/20 03:57:01;;;;;;;7.45;5.22;;;;;;;;;;5041115;28;20474;-77
2023/06/20 03:59:28;;;;;;;7.25;5.22;;;;;;;;;;5040061;28;20120;-77
2023/06/20 04:01:55;;;;;;;8.13;5.55;;;;;;;;;;5035184;28;20127;-77
2023/06/20 04:04:22;;;;;;;7.00;4.70;;;;;;;;;;5017276;28;20042;-78
2023/06/20 04:06:49;;;;;;;8.45;5.53;;;;;;;;;;5018247;28;20053;-78
2023/06/20 04:09:16;;;;;;;7.95;5.20;;;;;;;;;;5016948;28;20120;-77
2023/06/20 04:11:44;;;;;;;7.53;5.20;;;;;;;;;;5015795;28;20048;-77
2023/06/20 04:14:11;;;;;;;8.23;5.63;;;;;;;;;;5017373;28;20133;-79
2023/06/20 04:16:38;;;;;;;8.02;5.18;;;;;;;;;;5015148;28;20476;-78
2023/06/20 04:19:05;;;;;;;7.18;5.55;;;;;;;;;;5013810;28;20413;-78
2023/06/20 04:21:32;;;;;;;7.28;5.78;;;;;;;;;;5015035;28;20045;-77
2023/06/20 04:23:59;;;;;;;7.25;4.93;;;;;;;;;;5014490;28;20133;-77
2023/06/20 04:26:26;;;;;;;7.95;5.57;;;;;;;;;;5014501;28;20485;-77
2023/06/20 04:28:54;;;;;;;8.55;5.60;;;;;;;;;;5018153;28;20490;-78
2023/06/20 04:31:20;;;;;;;8.27;5.75;;;;;;;;;;5038862;28;20056;-78
2023/06/20 04:33:48;;;;;;;7.68;5.43;;;;;;;;;;5037440;28;20128;-78
2023/06/20 04:36:14;;;;;;;8.13;5.55;;;;;;;;;;5039509;28;20133;-78
2023/06/20 04:38:41;;;;;;;9.45;6.65;;;;;;;;;;5040240;28;20073;-79
2023/06/20 04:41:08;;;;;;;10.90;7.32;;;;;;;;;;5040497;28;20107;-79
2023/06/20 04:43:35;;;;;;;9.82;7.22;;;;;;;;;;5039147;28;20045;-78
2023/06/20 04:46:04;;;;;;;10.07;7.13;;;;;;;;;;5040264;28;20567;-78
2023/06/20 04:48:35;;;;;;;9.38;7.88;;;;;;;;;;5029013;28;20452;-78
2023/06/20 04:51:02;;;;;;;10.32;7.30;;;;;;;;;;5040512;28;20742;-78
2023/06/20 04:53:29;;;;;;;11.05;8.40;;;;;;;;;;5035520;28;20096;-78
2023/06/20 04:55:55;;;;;;;11.32;8.23;;;;;;;;;;5020169;28;20098;-78
2023/06/20 04:58:27;;;;;;;10.68;7.70;;;;;;;;;;5020995;28;20077;-78
2023/06/20 05:00:54;;;;;;;10.63;7.80;;;;;;;;;;5014279;28;20049;-78
2023/06/20 05:03:22;;;;;;;9.48;7.88;;;;;;;;;;5036815;28;20045;-77
2023/06/20 05:05:49;;;;;;;8.95;6.95;;;;;;;;;;5054172;28;20041;-77
2023/06/20 05:08:16;;;;;;;8.70;6.57;;;;;;;;;;5033474;28;20081;-77
2023/06/20 05:10:42;;;;;;;9.75;6.82;;;;;;;;;;5032980;28;20087;-77
2023/06/20 05:13:09;;;;;;;8.45;6.38;;;;;;;;;;5032952;28;20512;-78
2023/06/20 05:15:36;;;;;;;9.82;6.70;;;;;;;;;;5032602;28;20104;-77
2023/06/20 05:18:03;;;;;;;8.38;6.15;;;;;;;;;;5033717;28;20065;-77
2023/06/20 05:20:31;;;;;;;7.80;5.40;;;;;;;;;;5027228;28;20076;-77
2023/06/20 05:22:57;;;;;;;9.43;5.97;;;;;;;;;;5033696;28;20080;-77
2023/06/20 05:25:24;;;;;;;8.48;6.60;;;;;;;;;;5030313;28;20076;-78
2023/06/20 05:27:51;;;;;;;8.43;6.07;;;;;;;;;;5033307;28;20072;-77
2023/06/20 05:30:18;;;;;;;9.95;5.82;;;;;;;;;;5034627;28;20049;-78
2023/06/20 05:32:44;;;;;;;7.18;5.32;;;;;;;;;;5038392;28;20136;-79
2023/06/20 05:35:11;;;;;;;7.20;5.35;;;;;;;;;;5038756;28;20049;-79
2023/06/20 05:37:39;;;;;;;7.28;5.60;;;;;;;;;;5038626;28;20049;-78
2023/06/20 05:40:07;;;;;;;8.63;5.32;;;;;;;;;;5051790;28;20108;-78
2023/06/20 05:42:34;;;;;;;8.55;5.70;;;;;;;;;;5048218;28;20081;-78
2023/06/20 05:45:01;;;;;;;8.70;5.95;;;;;;;;;;5035986;28;20056;-78
2023/06/20 05:47:28;;;;;;;7.95;6.18;;;;;;;;;;5024683;28;20045;-78
2023/06/20 05:49:57;;;;;;;9.48;6.55;;;;;;;;;;5037658;28;20128;-78
2023/06/20 05:52:24;;;;;;;8.95;6.53;;;;;;;;;;5037403;28;20053;-78
2023/06/20 05:54:53;;;;;;;7.90;6.05;;;;;;;;;;5037101;28;20052;-78
2023/06/20 05:57:20;;;;;;;7.88;5.68;;;;;;;;;;5031090;28;20557;-77
2023/06/20 05:59:46;;;;;;;7.30;5.00;;;;;;;;;;5035011;28;20143;-78
2023/06/20 06:02:13;;;;;;;7.10;5.38;;;;;;;;;;5039412;28;20037;-78
2023/06/20 06:04:43;;;;;;;7.47;5.07;;;;;;;;;;5039144;28;20049;-77
2023/06/20 06:07:10;;;;;;;8.00;5.43;;;;;;;;;;5038826;28;20077;-77
2023/06/20 06:09:37;;;;;;;8.25;5.90;;;;;;;;;;5037656;28;20092;-77
2023/06/20 06:12:06;;;;;;;8.02;5.75;;;;;;;;;;5037618;28;20392;-78
2023/06/20 06:14:33;;;;;;;7.07;5.43;;;;;;;;;;5037377;28;20089;-78
2023/06/20 06:17:00;;;;;;;7.20;5.55;;;;;;;;;;5036762;28;20106;-78
2023/06/20 06:19:27;;;;;;;6.80;5.53;;;;;;;;;;5035727;28;20107;-78
2023/06/20 06:21:53;;;;;;;7.72;5.50;;;;;;;;;;5035554;28;20045;-78
2023/06/20 06:24:21;;;;;;;8.30;5.78;;;;;;;;;;5035987;28;20496;-77
2023/06/20 06:26:48;;;;;;;6.20;4.57;;;;;;;;;;5040118;28;20056;-77
2023/06/20 06:29:17;;;;;;;6.60;4.75;;;;;;;;;;5053502;28;20049;-77
2023/06/20 06:31:45;;;;;;;7.28;4.90;;;;;;;;;;5054356;28;20045;-77
2023/06/20 06:34:16;;;;;;;8.48;5.70;;;;;;;;;;5051506;28;20532;-77
2023/06/20 06:36:44;;;;;;;7.85;5.25;;;;;;;;;;5050861;28;20105;-77
2023/06/20 06:39:12;;;;;;;7.57;5.18;;;;;;;;;;5041786;28;20114;-77
2023/06/20 06:41:39;;;;;;;6.90;5.13;;;;;;;;;;5043763;28;20045;-78
2023/06/20 06:44:06;;;;;;;6.43;5.00;;;;;;;;;;5037753;28;20046;-77
2023/06/20 06:46:34;;;;;;;9.88;5.35;;;;;;;;;;5014969;28;20078;-77
2023/06/20 06:49:02;;;;;;;7.22;4.95;;;;;;;;;;5028248;28;20088;-78
2023/06/20 06:51:29;;;;;;;7.32;5.40;;;;;;;;;;5036568;28;20042;-78
2023/06/20 06:53:56;;;;;;;8.15;5.18;;;;;;;;;;5033629;28;20652;-76
2023/06/20 06:56:22;;;;;;;8.77;6.00;;;;;;;;;;5029778;28;20132;-76
2023/06/20 06:58:49;;;;;;;6.68;5.10;;;;;;;;;;5013225;28;20153;-76
2023/06/20 07:01:16;;;;;;;6.57;5.15;;;;;;;;;;5031388;28;20046;-76
2023/06/20 07:03:44;;;;;;;8.88;5.05;;;;;;;;;;5033336;28;20056;-76
2023/06/20 07:06:10;;;;;;;7.18;4.75;;;;;;;;;;5033961;28;20049;-77
2023/06/20 07:08:37;;;;;;;7.63;5.35;;;;;;;;;;5033309;28;20096;-77
2023/06/20 07:11:04;;;;;;;8.38;5.22;;;;;;;;;;5032178;28;20053;-76
2023/06/20 07:13:30;;;;;;;7.38;5.25;;;;;;;;;;5032769;28;20108;-76
2023/06/20 07:18:39;;;;;;;8.60;5.88;;;;;;;;;;5157180;27;20390;-63
2023/06/20 07:21:06;;;;;;;6.63;5.53;;;;;;;;;;5150615;27;20039;-64
2023/06/20 07:23:33;;;;;;;8.43;4.88;;;;;;;;;;5149738;27;20047;-63
2023/06/20 07:26:00;;;;;;;7.50;4.90;;;;;;;;;;5129939;27;20547;-62
2023/06/20 07:28:28;;;;;;;5.95;4.32;;;;;;;;;;5141057;27;20047;-63
2023/06/20 07:30:55;;;;;;;7.63;4.60;;;;;;;;;;5135105;27;20389;-63
2023/06/20 07:33:22;;;;;;;7.38;4.88;;;;;;;;;;5140615;27;20047;-62
2023/06/20 07:35:51;;;;;;;7.95;4.88;;;;;;;;;;5141538;27;20058;-63
2023/06/20 07:38:17;;;;;;;7.20;5.15;;;;;;;;;;5141234;27;20076;-63
2023/06/20 07:40:44;;;;;;;6.43;4.90;;;;;;;;;;5126204;27;20070;-63
2023/06/20 07:43:11;;;;;;;7.55;4.45;;;;;;;;;;5127770;28;20048;-62
2023/06/20 07:45:38;;;;;;;6.03;4.60;;;;;;;;;;5127705;28;20052;-64
2023/06/20 07:48:06;;;;;;;7.32;5.00;;;;;;;;;;5134206;27;20140;-64
2023/06/20 07:50:33;;;;;;;8.13;4.80;;;;;;;;;;5143862;27;20057;-63
2023/06/20 07:53:02;;;;;;;6.72;5.30;;;;;;;;;;5141422;27;20404;-64
2023/06/20 07:55:29;;;;;;;7.85;4.90;;;;;;;;;;5139384;27;20091;-65
2023/06/20 07:57:56;;;;;;;9.20;5.03;;;;;;;;;;5130359;27;20051;-64
2023/06/20 08:00:24;;;;;;;6.13;4.63;;;;;;;;;;5140091;27;20737;-63
2023/06/20 08:02:51;;;;;;;8.60;5.40;;;;;;;;;;5136812;27;20082;-64
2023/06/20 08:05:18;;;;;;;7.63;4.82;;;;;;;;;;5135532;27;20049;-63
2023/06/20 08:07:45;;;;;;;6.05;4.60;;;;;;;;;;5127076;28;20388;-64
2023/06/20 08:10:13;;;;;;;6.45;5.00;;;;;;;;;;5127130;28;20100;-63
2023/06/20 08:12:40;;;;;;;6.30;4.68;;;;;;;;;;5127527;27;20274;-63
2023/06/20 08:15:08;;;;;;;7.53;4.72;;;;;;;;;;5135655;27;20404;-65
2023/06/20 08:17:35;;;;;;;6.25;4.18;;;;;;;;;;5137828;27;20051;-65
2023/06/20 08:20:06;;;;;;;7.35;4.55;;;;;;;;;;5145384;27;20059;-69
2023/06/20 08:22:33;;;;;;;7.05;4.28;;;;;;;;;;5146732;27;20050;-66
2023/06/20 08:25:00;;;;;;;8.10;4.43;;;;;;;;;;5139429;27;20039;-66
2023/06/20 08:27:28;;;;;;;6.88;4.40;;;;;;;;;;5137296;27;20050;-62
2023/06/20 08:29:55;;;;;;;6.78;4.32;;;;;;;;;;5125493;27;20113;-63
2023/06/20 08:32:22;;;;;;;5.88;3.90;;;;;;;;;;5113064;27;20702;-66
2023/06/20 08:34:49;;;;;;;9.40;4.38;;;;;;;;;;5122142;27;20039;-65
2023/06/20 08:37:17;;;;;;;6.65;4.03;;;;;;;;;;5124569;27;20051;-64
2023/06/20 08:39:44;;;;;;;7.22;4.15;;;;;;;;;;5116488;27;20043;-62
2023/06/20 08:42:11;;;;;;;6.28;3.92;;;;;;;;;;5119672;27;20252;-65
2023/06/20 08:44:43;;;;;;;6.13;3.80;;;;;;;;;;5124152;27;20051;-63
2023/06/20 08:47:10;;;;;;;5.70;3.63;;;;;;;;;;5121262;27;20443;-63
2023/06/20 08:49:40;;;;;;;6.22;3.92;;;;;;;;;;5125189;27;20051;-65
2023/06/20 08:52:11;;;;;;;5.30;3.58;;;;;;;;;;5133193;27;20452;-64
2023/06/20 08:54:41;;;;;;;4.35;3.00;;;;;;;;;;5133768;27;20401;-64
2023/06/20 08:57:08;;;;;;;4.78;2.83;;;;;;;;;;5126103;27;20079;-63
2023/06/20 08:59:35;;;;;;;5.57;3.33;;;;;;;;;;5122228;27;20048;-65
2023/06/20 09:02:04;;;;;;;6.93;3.17;;;;;;;;;;5122666;27;20134;-64
2023/06/20 09:04:31;;;;;;;6.53;3.10;;;;;;;;;;5109724;28;20138;-65
2023/06/20 09:06:58;;;;;;;5.50;3.30;;;;;;;;;;5118154;27;20038;-64
2023/06/20 09:09:25;;;;;;;5.63;3.20;;;;;;;;;;5120411;27;20059;-64
2023/06/20 09:11:56;;;;;;;6.40;2.95;;;;;;;;;;5129454;27;20126;-64
2023/06/20 09:14:26;;;;;;;5.22;2.80;;;;;;;;;;5129411;27;20047;-63
2023/06/20 09:16:52;;;;;;;;;;;;;;;;;;5116592;27;20051;-64
2023/06/20 09:19:21;;;;;;;5.53;2.90;;;;;;;;;;5112057;27;19924;-62
2023/06/20 09:21:48;;;;;;;5.32;3.15;;;;;;;;;;5116513;27;20078;-62
2023/06/20 09:24:18;;;;;;;5.57;3.47;;;;;;;;;;5133150;27;20104;-63
2023/06/20 09:26:46;;;;;;;4.97;3.15;;;;;;;;;;5123926;27;20061;-63
2023/06/20 09:29:15;;;;;;;5.32;3.05;;;;;;;;;;5121701;27;20089;-62
2023/06/20 09:31:44;;;;;;;5.27;3.07;;;;;;;;;;5116418;27;20051;-62
2023/06/20 09:34:12;;;;;;;6.07;3.20;;;;;;;;;;5112691;28;20308;-63
2023/06/20 09:36:41;;;;;;;6.47;3.78;;;;;;;;;;5114661;27;20047;-65
2023/06/20 09:39:12;;;;;;;5.95;2.70;;;;;;;;;;5120376;27;20092;-64
2023/06/20 09:41:45;;;;;;;4.43;2.70;;;;;;;;;;5117022;27;20055;-62
2023/06/20 09:44:12;;;;;;;5.05;2.90;;;;;;;;;;5112227;28;20130;-63
2023/06/20 09:46:39;;;;;;;5.75;3.10;;;;;;;;;;5115319;27;20381;-60
2023/06/20 09:49:07;;;;;;;6.25;3.50;;;;;;;;;;5127274;27;20083;-63
2023/06/20 09:51:35;;;;;;;6.30;3.10;;;;;;;;;;5122644;27;20051;-62
2023/06/20 09:54:07;;;;;;;5.82;2.90;;;;;;;;;;5122607;27;20047;-63
2023/06/20 09:56:40;;;;;;;6.40;3.22;;;;;;;;;;5115999;27;20545;-63
2023/06/20 09:59:09;;;;;;;6.50;2.80;;;;;;;;;;5112645;27;20044;-63
2023/06/20 10:01:38;;;;;;;6.55;2.95;;;;;;;;;;5115013;27;20692;-62
2023/06/20 10:04:06;;;;;;;5.18;3.20;;;;;;;;;;5121166;27;20454;-62
2023/06/20 10:06:37;;;;;;;6.13;3.20;;;;;;;;;;5113558;27;20553;-64
2023/06/20 10:09:07;;;;;;;5.40;2.80;;;;;;;;;;5118872;27;20469;-63
2023/06/20 10:11:34;;;;;;;6.82;3.20;;;;;;;;;;5113294;27;20451;-63
2023/06/20 10:14:02;;;;;;;5.65;2.65;;;;;;;;;;5120258;27;20492;-64
2023/06/20 10:16:30;;;;;;;6.55;3.10;;;;;;;;;;5120099;27;20056;-64
2023/06/20 10:18:57;;;;;;;7.22;3.00;;;;;;;;;;5116905;27;20063;-63
2023/06/20 10:21:58;;;;;;;4.90;3.30;;;;;;;;;;5112510;27;20101;-61
2023/06/20 10:24:31;;;;;;;6.13;3.13;;;;;;;;;;5117808;27;20622;-64
2023/06/20 10:27:01;;;;;;;7.28;3.15;;;;;;;;;;5114909;27;20404;-64
2023/06/20 10:29:27;;;;;;;;;;;;;;;;;;5121582;27;20464;-63
2023/06/20 10:31:56;;;;;;;5.20;3.17;;;;;;;;;;5121226;27;19931;-63
2023/06/20 10:34:30;;;;;;;5.97;3.33;;;;;;;;;;5116853;27;20051;-62
2023/06/20 10:37:35;;;;;;;5.32;3.35;;;;;;;;;;5123986;27;20050;-63
2023/06/20 10:40:06;;;;;;;7.50;3.45;;;;;;;;;;5116975;27;20122;-64
2023/06/20 10:42:41;;;;;;;5.75;3.38;;;;;;;;;;5119682;27;20062;-64
2023/06/20 10:45:22;;;;;;;5.78;3.25;;;;;;;;;;5123036;27;20043;-64
2023/06/20 10:47:50;;;;;;;6.72;3.60;;;;;;;;;;5110907;28;20047;-62
2023/06/20 10:50:17;;;;;;;6.63;3.63;;;;;;;;;;5110624;28;20675;-64
2023/06/20 10:52:44;;;;;;;6.15;3.30;;;;;;;;;;5122599;27;20254;-64
2023/06/20 10:55:16;;;;;;;7.10;4.32;;;;;;;;;;5130448;27;20072;-64
2023/06/20 10:57:46;;;;;;;7.45;3.80;;;;;;;;;;5119228;27;20046;-63
2023/06/20 11:00:17;;;;;;;6.28;4.03;;;;;;;;;;5116674;27;20583;-63
2023/06/20 11:02:44;;;;;;;7.03;4.00;;;;;;;;;;5124414;27;20135;-64
2023/06/20 11:05:11;;;;;;;6.80;3.95;;;;;;;;;;5118904;27;20475;-64
2023/06/20 11:07:55;;;;;;;5.35;3.55;;;;;;;;;;5115782;27;20477;-64
2023/06/20 11:10:27;;;;;;;6.28;4.40;;;;;;;;;;5121879;27;20154;-65
2023/06/20 11:12:55;;;;;;;7.72;4.97;;;;;;;;;;5117196;27;20143;-63
2023/06/20 11:15:24;;;;;;;8.23;4.40;;;;;;;;;;5119952;28;20043;-64
2023/06/20 11:17:52;;;;;;;6.10;3.30;;;;;;;;;;5111172;28;20047;-63
2023/06/20 11:20:19;;;;;;;6.45;3.83;;;;;;;;;;5110828;28;20052;-63
2023/06/20 11:22:47;;;;;;;6.15;4.03;;;;;;;;;;5117013;28;20046;-64
2023/06/20 11:25:24;;;;;;;5.47;3.53;;;;;;;;;;5117232;28;20050;-66
2023/06/20 11:27:50;;;;;;;17.13;10.48;;;;;;;;;;5129859;27;20118;-64
2023/06/20 11:30:24;;;;;;;7.35;4.95;;;;;;;;;;5111820;28;20055;-65
2023/06/20 11:33:03;;;;;;;12.55;7.05;;;;;;;;;;5120083;28;20043;-65
2023/06/20 11:35:44;;;;;;;10.20;4.22;;;;;;;;;;5120001;28;20408;-62
2023/06/20 11:38:13;;;;;;;6.47;3.97;;;;;;;;;;5121725;27;20051;-63
2023/06/20 11:40:42;;;;;;;6.07;3.60;;;;;;;;;;5116491;28;20036;-64
2023/06/20 11:43:20;;;;;;;6.57;4.03;;;;;;;;;;5115603;28;20044;-68
2023/06/20 11:45:47;;;;;;;7.55;4.20;;;;;;;;;;5119128;28;20055;-65
2023/06/20 11:48:15;;;;;;;6.13;3.95;;;;;;;;;;5118990;28;20126;-65
2023/06/20 11:50:44;;;;;;;7.75;4.38;;;;;;;;;;5119228;28;20048;-67
2023/06/20 11:53:22;;;;;;;6.53;3.22;;;;;;;;;;5114894;28;20120;-63
2023/06/20 11:55:52;;;;;;;5.90;3.60;;;;;;;;;;5114169;28;20043;-63
2023/06/20 11:58:20;;;;;;;7.88;4.20;;;;;;;;;;5118080;28;20055;-64
2023/06/20 12:00:48;;;;;;;5.22;3.20;;;;;;;;;;5115496;28;20477;-64
2023/06/20 12:03:21;;;;;;;6.30;3.40;;;;;;;;;;5121027;28;20676;-63
2023/06/20 12:05:48;;;;;;;5.82;3.70;;;;;;;;;;5114032;27;20086;-62
2023/06/20 12:08:16;;;;;;;6.20;4.05;;;;;;;;;;5125022;27;20111;-63
2023/06/20 12:10:48;;;;;;;5.70;3.40;;;;;;;;;;5127768;27;20052;-65
2023/06/20 12:13:17;;;;;;;5.55;3.40;;;;;;;;;;5128727;27;20051;-63
2023/06/20 12:15:46;;;;;;;6.57;3.83;;;;;;;;;;5125904;27;20054;-65
2023/06/20 12:18:12;;;;;;;5.47;3.50;;;;;;;;;;5132958;27;20400;-62
2023/06/20 12:20:40;;;;;;;7.18;3.80;;;;;;;;;;5113309;28;20201;-64
2023/06/20 12:23:07;;;;;;;6.15;3.20;;;;;;;;;;5114375;27;20063;-64
2023/06/20 12:25:33;;;;;;;7.05;4.20;;;;;;;;;;5118251;27;20052;-61
2023/06/20 12:28:01;;;;;;;5.45;3.63;;;;;;;;;;5120813;27;20400;-62
2023/06/20 12:30:30;;;;;;;5.82;3.63;;;;;;;;;;5131808;27;20063;-62
2023/06/20 12:32:58;;;;;;;5.32;3.70;;;;;;;;;;5124558;27;20060;-60
2023/06/20 12:35:25;;;;;;;6.45;3.67;;;;;;;;;;5113963;27;20104;-59
2023/06/20 12:37:52;;;;;;;6.40;3.70;;;;;;;;;;5117735;27;20362;-62
2023/06/20 12:40:19;;;;;;;8.73;4.40;;;;;;;;;;5121482;27;20065;-63
2023/06/20 12:42:46;;;;;;;7.75;3.90;;;;;;;;;;5117391;27;20051;-65
2023/06/20 12:45:13;;;;;;;6.22;3.95;;;;;;;;;;5120383;27;20625;-65
2023/06/20 12:47:41;;;;;;;6.60;4.13;;;;;;;;;;5124854;27;20138;-64
2023/06/20 12:50:09;;;;;;;6.07;4.22;;;;;;;;;;5124238;27;20044;-64
2023/06/20 12:52:36;;;;;;;7.68;4.40;;;;;;;;;;5122670;27;20556;-63
2023/06/20 12:55:05;;;;;;;7.53;4.13;;;;;;;;;;5115735;27;20440;-63
2023/06/20 12:57:33;;;;;;;5.43;3.60;;;;;;;;;;5120552;27;20048;-64
2023/06/20 13:00:00;;;;;;;5.28;3.72;;;;;;;;;;5112928;27;20502;-64
2023/06/20 13:02:27;;;;;;;6.10;3.60;;;;;;;;;;5119970;27;20048;-64
2023/06/20 13:04:56;;;;;;;6.75;3.80;;;;;;;;;;5116102;27;20043;-63
2023/06/20 13:07:24;;;;;;;7.55;4.07;;;;;;;;;;5129561;27;20053;-64
2023/06/20 13:09:51;;;;;;;5.55;3.58;;;;;;;;;;5122564;27;20082;-64
2023/06/20 13:12:19;;;;;;;7.15;3.97;;;;;;;;;;5129454;27;20134;-64
2023/06/20 13:14:47;;;;;;;7.68;3.92;;;;;;;;;;5122719;27;20071;-63
2023/06/20 13:17:15;;;;;;;6.22;4.18;;;;;;;;;;5119624;27;20062;-63
2023/06/20 13:19:41;;;;;;;6.63;4.28;;;;;;;;;;5117818;27;20069;-64
2023/06/20 13:22:10;;;;;;;5.45;4.15;;;;;;;;;;5115282;27;20397;-63
2023/06/20 13:24:42;;;;;;;7.07;4.18;;;;;;;;;;5116993;27;20059;-64
2023/06/20 13:27:09;;;;;;;7.85;3.75;;;;;;;;;;5118639;27;20056;-63
2023/06/20 13:29:36;;;;;;;8.02;4.15;;;;;;;;;;5119272;27;20058;-63
2023/06/20 13:32:04;;;;;;;7.80;3.97;;;;;;;;;;5120169;27;20043;-63
2023/06/20 13:34:31;;;;;;;6.10;3.72;;;;;;;;;;5118511;27;20116;-66
2023/06/20 13:36:58;;;;;;;7.85;3.97;;;;;;;;;;5116111;27;20040;-65
2023/06/20 13:39:28;;;;;;;5.93;4.03;;;;;;;;;;5119620;27;20474;-62
2023/06/20 13:41:55;;;;;;;5.10;3.75;;;;;;;;;;5118993;27;20046;-64
2023/06/20 13:44:22;;;;;;;6.90;3.88;;;;;;;;;;5122833;27;20044;-64
2023/06/20 13:46:50;;;;;;;6.22;4.32;;;;;;;;;;5121418;27;20075;-64
2023/06/20 13:49:17;;;;;;;4.93;3.80;;;;;;;;;;5119210;27;20491;-64
2023/06/20 13:51:44;;;;;;;7.30;4.28;;;;;;;;;;5115157;27;20099;-64
2023/06/20 13:54:11;;;;;;;6.72;4.18;;;;;;;;;;5119504;27;20074;-64
2023/06/20 13:56:39;;;;;;;9.63;4.47;;;;;;;;;;5115535;27;20134;-65
2023/06/20 13:59:09;;;;;;;9.18;4.15;;;;;;;;;;5118502;27;20039;-65
2023/06/20 14:01:36;;;;;;;9.55;4.13;;;;;;;;;;5116667;27;20047;-64
2023/06/20 14:04:04;;;;;;;8.52;3.90;;;;;;;;;;5116915;27;20370;-66
2023/06/20 14:06:32;;;;;;;5.32;3.67;;;;;;;;;;5117524;27;20093;-64
2023/06/20 14:08:59;;;;;;;10.43;4.40;;;;;;;;;;5110955;28;20048;-64
2023/06/20 14:11:26;;;;;;;6.97;4.40;;;;;;;;;;5120239;27;20113;-64
2023/06/20 14:13:54;;;;;;;7.47;4.45;;;;;;;;;;5116276;27;20377;-65
2023/06/20 14:16:23;;;;;;;6.65;3.90;;;;;;;;;;5113728;27;20116;-64
2023/06/20 14:18:51;;;;;;;6.65;4.07;;;;;;;;;;5111758;27;20054;-64
2023/06/20 14:21:19;;;;;;;6.25;4.05;;;;;;;;;;5111558;27;20050;-64
2023/06/20 14:23:46;;;;;;;7.20;4.30;;;;;;;;;;5132136;27;20130;-63
2023/06/20 14:26:15;;;;;;;6.65;4.43;;;;;;;;;;5129471;27;20111;-65
2023/06/20 14:28:44;;;;;;;6.80;4.30;;;;;;;;;;5113302;27;20493;-65
2023/06/20 14:31:12;;;;;;;6.78;3.75;;;;;;;;;;5116508;27;20480;-64
2023/06/20 14:33:39;;;;;;;5.95;4.13;;;;;;;;;;5112883;27;20050;-65
2023/06/20 14:36:07;;;;;;;7.82;3.90;;;;;;;;;;5113287;27;20492;-65
2023/06/20 14:38:34;;;;;;;8.95;4.60;;;;;;;;;;5115172;27;20056;-65
2023/06/20 14:41:01;;;;;;;7.53;4.28;;;;;;;;;;5116148;27;20561;-66
2023/06/20 14:43:28;;;;;;;5.80;4.25;;;;;;;;;;5111980;27;20044;-62
2023/06/20 14:45:54;;;;;;;5.38;3.55;;;;;;;;;;5117471;27;20100;-65
2023/06/20 14:48:23;;;;;;;7.20;4.25;;;;;;;;;;5111264;28;20054;-65
2023/06/20 14:50:50;;;;;;;7.28;4.10;;;;;;;;;;5112960;27;20118;-65
2023/06/20 14:53:17;;;;;;;9.85;4.18;;;;;;;;;;5116818;27;20047;-63